sensor_id;sensor_type;location;lat;lon;timestamp;P1;durP1;ratioP1;P2;durP2;ratioP2
12118;SDS011;6123;48.864;9.200;2023-06-22T00:01:50;9.18;;;8.43;;
12118;SDS011;6123;48.864;9.200;2023-06-22T00:04:15;7.80;;;7.22;;
12118;SDS011;6123;48.864;9.200;2023-06-22T00:06:41;9.07;;;8.38;;
12118;SDS011;6123;48.864;9.200;2023-06-22T00:09:06;8.93;;;7.97;;
12118;SDS011;6123;48.864;9.200;2023-06-22T00:11:35;9.18;;;8.48;;
12118;SDS011;6123;48.864;9.200;2023-06-22T00:14:01;9.65;;;8.73;;
12118;SDS011;6123;48.864;9.200;2023-06-22T00:16:26;9.32;;;8.52;;
12118;SDS011;6123;48.864;9.200;2023-06-22T00:18:52;8.75;;;8.05;;
12118;SDS011;6123;48.864;9.200;2023-06-22T00:21:17;9.05;;;8.35;;
12118;SDS011;6123;48.864;9.200;2023-06-22T00:23:45;9.10;;;8.40;;
12118;SDS011;6123;48.864;9.200;2023-06-22T00:26:14;8.43;;;7.72;;
12118;SDS011;6123;48.864;9.200;2023-06-22T00:28:41;9.20;;;8.30;;
12118;SDS011;6123;48.864;9.200;2023-06-22T00:31:06;9.30;;;8.40;;
12118;SDS011;6123;48.864;9.200;2023-06-22T00:33:32;9.38;;;8.60;;
12118;SDS011;6123;48.864;9.200;2023-06-22T00:35:57;9.75;;;8.95;;
12118;SDS011;6123;48.864;9.200;2023-06-22T00:38:23;10.57;;;9.57;;
12118;SDS011;6123;48.864;9.200;2023-06-22T00:40:48;10.57;;;9.48;;
12118;SDS011;6123;48.864;9.200;2023-06-22T00:43:14;9.30;;;8.52;;
12118;SDS011;6123;48.864;9.200;2023-06-22T00:45:40;9.52;;;8.70;;
12118;SDS011;6123;48.864;9.200;2023-06-22T00:48:05;9.23;;;8.43;;
12118;SDS011;6123;48.864;9.200;2023-06-22T00:50:32;8.80;;;8.20;;
12118;SDS011;6123;48.864;9.200;2023-06-22T00:53:00;9.35;;;8.55;;
12118;SDS011;6123;48.864;9.200;2023-06-22T00:55:33;8.80;;;8.10;;
12118;SDS011;6123;48.864;9.200;2023-06-22T00:58:02;10.95;;;9.90;;
12118;SDS011;6123;48.864;9.200;2023-06-22T01:00:35;9.98;;;9.10;;
12118;SDS011;6123;48.864;9.200;2023-06-22T01:03:01;9.38;;;8.45;;
12118;SDS011;6123;48.864;9.200;2023-06-22T01:05:27;9.65;;;8.60;;
12118;SDS011;6123;48.864;9.200;2023-06-22T01:10:37;10.43;;;9.55;;
12118;SDS011;6123;48.864;9.200;2023-06-22T01:13:18;11.10;;;10.20;;
12118;SDS011;6123;48.864;9.200;2023-06-22T01:16:05;9.35;;;8.38;;
12118;SDS011;6123;48.864;9.200;2023-06-22T01:18:39;9.00;;;8.27;;
12118;SDS011;6123;48.864;9.200;2023-06-22T01:21:07;9.30;;;8.43;;
12118;SDS011;6123;48.864;9.200;2023-06-22T01:23:47;9.07;;;8.27;;
12118;SDS011;6123;48.864;9.200;2023-06-22T01:26:21;9.20;;;8.40;;
12118;SDS011;6123;48.864;9.200;2023-06-22T01:28:59;9.95;;;8.98;;
12118;SDS011;6123;48.864;9.200;2023-06-22T01:31:26;9.52;;;8.63;;
12118;SDS011;6123;48.864;9.200;2023-06-22T01:33:55;8.93;;;8.23;;
12118;SDS011;6123;48.864;9.200;2023-06-22T01:36:24;9.02;;;8.15;;
12118;SDS011;6123;48.864;9.200;2023-06-22T01:38:51;8.77;;;7.95;;
12118;SDS011;6123;48.864;9.200;2023-06-22T01:41:19;9.13;;;8.32;;
12118;SDS011;6123;48.864;9.200;2023-06-22T01:43:45;9.93;;;9.02;;
12118;SDS011;6123;48.864;9.200;2023-06-22T01:46:12;9.38;;;8.50;;
12118;SDS011;6123;48.864;9.200;2023-06-22T01:48:39;9.52;;;8.63;;
12118;SDS011;6123;48.864;9.200;2023-06-22T01:51:05;9.55;;;8.75;;
12118;SDS011;6123;48.864;9.200;2023-06-22T01:53:31;9.57;;;8.85;;
12118;SDS011;6123;48.864;9.200;2023-06-22T01:55:56;10.52;;;9.48;;
12118;SDS011;6123;48.864;9.200;2023-06-22T01:58:26;9.07;;;8.27;;
12118;SDS011;6123;48.864;9.200;2023-06-22T02:00:58;9.77;;;8.88;;
12118;SDS011;6123;48.864;9.200;2023-06-22T02:03:34;10.77;;;9.80;;
12118;SDS011;6123;48.864;9.200;2023-06-22T02:06:08;9.63;;;8.73;;
12118;SDS011;6123;48.864;9.200;2023-06-22T02:08:49;9.23;;;8.32;;
12118;SDS011;6123;48.864;9.200;2023-06-22T02:11:20;10.43;;;9.35;;
12118;SDS011;6123;48.864;9.200;2023-06-22T02:13:47;9.40;;;8.50;;
12118;SDS011;6123;48.864;9.200;2023-06-22T02:16:14;10.13;;;9.30;;
12118;SDS011;6123;48.864;9.200;2023-06-22T02:18:47;9.52;;;8.48;;
12118;SDS011;6123;48.864;9.200;2023-06-22T02:21:15;9.02;;;8.32;;
12118;SDS011;6123;48.864;9.200;2023-06-22T02:23:44;9.77;;;8.82;;
12118;SDS011;6123;48.864;9.200;2023-06-22T02:26:10;9.25;;;8.43;;
12118;SDS011;6123;48.864;9.200;2023-06-22T02:28:35;9.30;;;8.40;;
12118;SDS011;6123;48.864;9.200;2023-06-22T02:31:01;8.77;;;8.02;;
12118;SDS011;6123;48.864;9.200;2023-06-22T02:33:26;8.70;;;8.00;;
12118;SDS011;6123;48.864;9.200;2023-06-22T02:35:52;8.55;;;7.80;;
12118;SDS011;6123;48.864;9.200;2023-06-22T02:38:18;9.48;;;8.68;;
12118;SDS011;6123;48.864;9.200;2023-06-22T02:40:44;9.00;;;8.30;;
12118;SDS011;6123;48.864;9.200;2023-06-22T02:43:09;9.50;;;8.60;;
12118;SDS011;6123;48.864;9.200;2023-06-22T02:45:35;8.75;;;8.00;;
12118;SDS011;6123;48.864;9.200;2023-06-22T02:48:00;9.00;;;8.20;;
12118;SDS011;6123;48.864;9.200;2023-06-22T02:50:26;10.17;;;9.33;;
12118;SDS011;6123;48.864;9.200;2023-06-22T02:52:52;8.48;;;7.72;;
12118;SDS011;6123;48.864;9.200;2023-06-22T02:55:17;9.63;;;8.63;;
12118;SDS011;6123;48.864;9.200;2023-06-22T02:57:43;9.65;;;8.75;;
12118;SDS011;6123;48.864;9.200;2023-06-22T03:00:10;8.77;;;8.00;;
12118;SDS011;6123;48.864;9.200;2023-06-22T03:02:46;9.88;;;8.98;;
12118;SDS011;6123;48.864;9.200;2023-06-22T03:05:12;9.18;;;8.48;;
12118;SDS011;6123;48.864;9.200;2023-06-22T03:07:40;9.75;;;8.82;;
12118;SDS011;6123;48.864;9.200;2023-06-22T03:10:06;10.18;;;8.82;;
12118;SDS011;6123;48.864;9.200;2023-06-22T03:12:38;9.00;;;8.23;;
12118;SDS011;6123;48.864;9.200;2023-06-22T03:15:08;8.95;;;8.13;;
12118;SDS011;6123;48.864;9.200;2023-06-22T03:17:36;10.20;;;9.10;;
12118;SDS011;6123;48.864;9.200;2023-06-22T03:20:03;9.07;;;8.18;;
12118;SDS011;6123;48.864;9.200;2023-06-22T03:22:39;9.63;;;8.77;;
12118;SDS011;6123;48.864;9.200;2023-06-22T03:25:06;9.15;;;8.45;;
12118;SDS011;6123;48.864;9.200;2023-06-22T03:27:38;11.30;;;8.52;;
12118;SDS011;6123;48.864;9.200;2023-06-22T03:30:05;10.05;;;9.15;;
12118;SDS011;6123;48.864;9.200;2023-06-22T03:32:32;9.45;;;8.55;;
12118;SDS011;6123;48.864;9.200;2023-06-22T03:34:57;9.80;;;8.90;;
12118;SDS011;6123;48.864;9.200;2023-06-22T03:37:24;10.10;;;9.10;;
12118;SDS011;6123;48.864;9.200;2023-06-22T03:39:50;9.93;;;9.18;;
12118;SDS011;6123;48.864;9.200;2023-06-22T03:42:17;9.93;;;9.07;;
12118;SDS011;6123;48.864;9.200;2023-06-22T03:44:42;9.60;;;8.75;;
12118;SDS011;6123;48.864;9.200;2023-06-22T03:47:08;9.88;;;8.32;;
12118;SDS011;6123;48.864;9.200;2023-06-22T03:49:36;11.32;;;10.20;;
12118;SDS011;6123;48.864;9.200;2023-06-22T03:52:02;10.27;;;9.48;;
12118;SDS011;6123;48.864;9.200;2023-06-22T03:54:28;10.23;;;9.23;;
12118;SDS011;6123;48.864;9.200;2023-06-22T03:56:56;9.43;;;8.32;;
12118;SDS011;6123;48.864;9.200;2023-06-22T03:59:22;9.85;;;9.00;;
12118;SDS011;6123;48.864;9.200;2023-06-22T04:01:48;10.30;;;9.32;;
12118;SDS011;6123;48.864;9.200;2023-06-22T04:04:14;9.75;;;8.90;;
12118;SDS011;6123;48.864;9.200;2023-06-22T04:06:39;9.80;;;8.80;;
12118;SDS011;6123;48.864;9.200;2023-06-22T04:09:07;10.80;;;9.80;;
12118;SDS011;6123;48.864;9.200;2023-06-22T04:11:33;10.77;;;9.73;;
12118;SDS011;6123;48.864;9.200;2023-06-22T04:13:58;11.20;;;10.20;;
12118;SDS011;6123;48.864;9.200;2023-06-22T04:16:25;9.45;;;8.73;;
12118;SDS011;6123;48.864;9.200;2023-06-22T04:18:50;10.32;;;9.40;;
12118;SDS011;6123;48.864;9.200;2023-06-22T04:21:16;9.15;;;8.40;;
12118;SDS011;6123;48.864;9.200;2023-06-22T04:23:41;9.60;;;8.40;;
12118;SDS011;6123;48.864;9.200;2023-06-22T04:26:08;9.32;;;8.48;;
12118;SDS011;6123;48.864;9.200;2023-06-22T04:28:33;12.45;;;9.27;;
12118;SDS011;6123;48.864;9.200;2023-06-22T04:31:01;9.50;;;8.57;;
12118;SDS011;6123;48.864;9.200;2023-06-22T04:33:27;10.18;;;8.77;;
12118;SDS011;6123;48.864;9.200;2023-06-22T04:35:56;10.05;;;9.18;;
12118;SDS011;6123;48.864;9.200;2023-06-22T04:38:22;10.18;;;8.85;;
12118;SDS011;6123;48.864;9.200;2023-06-22T04:40:48;10.27;;;9.45;;
12118;SDS011;6123;48.864;9.200;2023-06-22T04:43:15;9.32;;;8.48;;
12118;SDS011;6123;48.864;9.200;2023-06-22T04:45:40;9.73;;;8.93;;
12118;SDS011;6123;48.864;9.200;2023-06-22T04:48:06;10.10;;;9.15;;
12118;SDS011;6123;48.864;9.200;2023-06-22T04:50:34;9.30;;;8.45;;
12118;SDS011;6123;48.864;9.200;2023-06-22T04:53:02;9.50;;;8.73;;
12118;SDS011;6123;48.864;9.200;2023-06-22T04:55:30;10.43;;;9.43;;
12118;SDS011;6123;48.864;9.200;2023-06-22T04:57:56;9.35;;;8.48;;
12118;SDS011;6123;48.864;9.200;2023-06-22T05:00:29;10.15;;;9.20;;
12118;SDS011;6123;48.864;9.200;2023-06-22T05:02:55;9.60;;;8.70;;
12118;SDS011;6123;48.864;9.200;2023-06-22T05:05:22;9.35;;;8.55;;
12118;SDS011;6123;48.864;9.200;2023-06-22T05:07:50;9.65;;;8.73;;
12118;SDS011;6123;48.864;9.200;2023-06-22T05:10:24;10.60;;;9.05;;
12118;SDS011;6123;48.864;9.200;2023-06-22T05:12:50;9.82;;;8.82;;
12118;SDS011;6123;48.864;9.200;2023-06-22T05:15:15;10.02;;;8.60;;
12118;SDS011;6123;48.864;9.200;2023-06-22T05:17:41;9.65;;;8.85;;
12118;SDS011;6123;48.864;9.200;2023-06-22T05:20:12;9.55;;;8.65;;
12118;SDS011;6123;48.864;9.200;2023-06-22T05:22:38;11.52;;;10.38;;
12118;SDS011;6123;48.864;9.200;2023-06-22T05:25:07;10.85;;;9.77;;
12118;SDS011;6123;48.864;9.200;2023-06-22T05:27:34;9.55;;;8.77;;
12118;SDS011;6123;48.864;9.200;2023-06-22T05:30:04;9.50;;;8.70;;
12118;SDS011;6123;48.864;9.200;2023-06-22T05:32:31;13.38;;;10.63;;
12118;SDS011;6123;48.864;9.200;2023-06-22T05:34:57;11.27;;;10.18;;
12118;SDS011;6123;48.864;9.200;2023-06-22T05:37:22;10.85;;;9.82;;
12118;SDS011;6123;48.864;9.200;2023-06-22T05:39:48;10.25;;;9.35;;
12118;SDS011;6123;48.864;9.200;2023-06-22T05:42:13;10.18;;;9.25;;
12118;SDS011;6123;48.864;9.200;2023-06-22T05:44:39;10.35;;;9.32;;
12118;SDS011;6123;48.864;9.200;2023-06-22T05:47:05;11.60;;;10.57;;
12118;SDS011;6123;48.864;9.200;2023-06-22T05:49:31;11.77;;;10.73;;
12118;SDS011;6123;48.864;9.200;2023-06-22T05:51:57;10.55;;;9.55;;
12118;SDS011;6123;48.864;9.200;2023-06-22T05:54:24;9.60;;;8.75;;
12118;SDS011;6123;48.864;9.200;2023-06-22T05:56:50;10.40;;;9.40;;
12118;SDS011;6123;48.864;9.200;2023-06-22T05:59:16;10.45;;;9.45;;
12118;SDS011;6123;48.864;9.200;2023-06-22T06:01:41;10.45;;;9.45;;
12118;SDS011;6123;48.864;9.200;2023-06-22T06:04:06;10.00;;;9.20;;
12118;SDS011;6123;48.864;9.200;2023-06-22T06:06:33;10.93;;;9.85;;
12118;SDS011;6123;48.864;9.200;2023-06-22T06:09:02;10.10;;;9.20;;
12118;SDS011;6123;48.864;9.200;2023-06-22T06:11:28;9.82;;;8.93;;
12118;SDS011;6123;48.864;9.200;2023-06-22T06:13:54;9.88;;;8.98;;
12118;SDS011;6123;48.864;9.200;2023-06-22T06:16:19;9.60;;;8.65;;
12118;SDS011;6123;48.864;9.200;2023-06-22T06:18:45;10.23;;;9.00;;
12118;SDS011;6123;48.864;9.200;2023-06-22T06:21:10;9.40;;;8.48;;
12118;SDS011;6123;48.864;9.200;2023-06-22T06:23:36;10.40;;;9.50;;
12118;SDS011;6123;48.864;9.200;2023-06-22T06:26:01;9.43;;;8.60;;
12118;SDS011;6123;48.864;9.200;2023-06-22T06:28:27;9.65;;;8.82;;
12118;SDS011;6123;48.864;9.200;2023-06-22T06:30:52;9.90;;;9.02;;
12118;SDS011;6123;48.864;9.200;2023-06-22T06:33:18;9.00;;;8.10;;
12118;SDS011;6123;48.864;9.200;2023-06-22T06:35:45;10.20;;;9.18;;
12118;SDS011;6123;48.864;9.200;2023-06-22T06:38:11;9.02;;;8.15;;
12118;SDS011;6123;48.864;9.200;2023-06-22T06:40:36;9.27;;;8.35;;
12118;SDS011;6123;48.864;9.200;2023-06-22T06:43:02;9.65;;;8.80;;
12118;SDS011;6123;48.864;9.200;2023-06-22T06:45:27;9.57;;;8.50;;
12118;SDS011;6123;48.864;9.200;2023-06-22T06:47:54;8.95;;;8.18;;
12118;SDS011;6123;48.864;9.200;2023-06-22T06:50:19;7.35;;;6.75;;
12118;SDS011;6123;48.864;9.200;2023-06-22T06:52:45;10.63;;;9.52;;
12118;SDS011;6123;48.864;9.200;2023-06-22T06:55:11;8.10;;;7.40;;
12118;SDS011;6123;48.864;9.200;2023-06-22T06:57:38;8.88;;;8.07;;
12118;SDS011;6123;48.864;9.200;2023-06-22T07:00:05;9.27;;;8.20;;
12118;SDS011;6123;48.864;9.200;2023-06-22T07:02:37;8.07;;;7.30;;
12118;SDS011;6123;48.864;9.200;2023-06-22T07:05:04;9.32;;;7.10;;
12118;SDS011;6123;48.864;9.200;2023-06-22T07:07:31;7.55;;;6.85;;
12118;SDS011;6123;48.864;9.200;2023-06-22T07:09:57;7.78;;;6.80;;
12118;SDS011;6123;48.864;9.200;2023-06-22T07:12:23;8.15;;;7.00;;
12118;SDS011;6123;48.864;9.200;2023-06-22T07:14:48;6.68;;;6.13;;
12118;SDS011;6123;48.864;9.200;2023-06-22T07:17:15;7.57;;;6.75;;
12118;SDS011;6123;48.864;9.200;2023-06-22T07:19:40;7.72;;;6.80;;
12118;SDS011;6123;48.864;9.200;2023-06-22T07:22:07;7.20;;;6.50;;
12118;SDS011;6123;48.864;9.200;2023-06-22T07:24:32;6.50;;;5.93;;
12118;SDS011;6123;48.864;9.200;2023-06-22T07:26:58;6.22;;;5.72;;
12118;SDS011;6123;48.864;9.200;2023-06-22T07:29:24;8.07;;;6.57;;
12118;SDS011;6123;48.864;9.200;2023-06-22T07:31:51;7.60;;;6.82;;
12118;SDS011;6123;48.864;9.200;2023-06-22T07:34:17;7.50;;;6.22;;
12118;SDS011;6123;48.864;9.200;2023-06-22T07:36:43;6.68;;;6.07;;
12118;SDS011;6123;48.864;9.200;2023-06-22T07:39:09;6.38;;;5.88;;
12118;SDS011;6123;48.864;9.200;2023-06-22T07:41:34;6.30;;;5.80;;
12118;SDS011;6123;48.864;9.200;2023-06-22T07:44:01;6.85;;;6.10;;
12118;SDS011;6123;48.864;9.200;2023-06-22T07:46:27;7.88;;;6.25;;
12118;SDS011;6123;48.864;9.200;2023-06-22T07:48:55;6.68;;;6.07;;
12118;SDS011;6123;48.864;9.200;2023-06-22T07:51:21;7.20;;;6.43;;
12118;SDS011;6123;48.864;9.200;2023-06-22T07:53:46;6.28;;;5.68;;
12118;SDS011;6123;48.864;9.200;2023-06-22T07:56:12;6.78;;;5.95;;
12118;SDS011;6123;48.864;9.200;2023-06-22T07:58:38;6.32;;;5.72;;
12118;SDS011;6123;48.864;9.200;2023-06-22T08:01:03;6.25;;;5.65;;
12118;SDS011;6123;48.864;9.200;2023-06-22T08:03:29;8.07;;;5.95;;
12118;SDS011;6123;48.864;9.200;2023-06-22T08:05:55;9.15;;;5.78;;
12118;SDS011;6123;48.864;9.200;2023-06-22T08:08:20;8.63;;;6.00;;
12118;SDS011;6123;48.864;9.200;2023-06-22T08:10:46;6.88;;;6.18;;
12118;SDS011;6123;48.864;9.200;2023-06-22T08:13:11;5.95;;;5.25;;
12118;SDS011;6123;48.864;9.200;2023-06-22T08:15:37;6.82;;;5.18;;
12118;SDS011;6123;48.864;9.200;2023-06-22T08:18:03;8.02;;;6.07;;
12118;SDS011;6123;48.864;9.200;2023-06-22T08:20:28;5.95;;;5.43;;
12118;SDS011;6123;48.864;9.200;2023-06-22T08:22:55;6.78;;;5.85;;
12118;SDS011;6123;48.864;9.200;2023-06-22T08:25:22;5.85;;;5.32;;
12118;SDS011;6123;48.864;9.200;2023-06-22T08:27:48;6.68;;;6.07;;
12118;SDS011;6123;48.864;9.200;2023-06-22T08:30:14;6.68;;;5.97;;
12118;SDS011;6123;48.864;9.200;2023-06-22T08:32:40;7.72;;;5.20;;
12118;SDS011;6123;48.864;9.200;2023-06-22T08:35:06;6.90;;;4.82;;
12118;SDS011;6123;48.864;9.200;2023-06-22T08:37:33;6.63;;;5.78;;
12118;SDS011;6123;48.864;9.200;2023-06-22T08:40:00;7.30;;;5.63;;
12118;SDS011;6123;48.864;9.200;2023-06-22T08:42:29;7.78;;;6.28;;
12118;SDS011;6123;48.864;9.200;2023-06-22T08:44:55;7.82;;;5.97;;
12118;SDS011;6123;48.864;9.200;2023-06-22T08:47:20;6.95;;;6.00;;
12118;SDS011;6123;48.864;9.200;2023-06-22T08:49:46;6.20;;;5.60;;
12118;SDS011;6123;48.864;9.200;2023-06-22T08:52:12;7.18;;;5.80;;
12118;SDS011;6123;48.864;9.200;2023-06-22T08:54:37;9.65;;;6.07;;
12118;SDS011;6123;48.864;9.200;2023-06-22T08:57:03;7.18;;;5.40;;
12118;SDS011;6123;48.864;9.200;2023-06-22T08:59:29;5.75;;;5.07;;
12118;SDS011;6123;48.864;9.200;2023-06-22T09:01:54;6.07;;;5.47;;
12118;SDS011;6123;48.864;9.200;2023-06-22T09:04:20;6.47;;;5.53;;
12118;SDS011;6123;48.864;9.200;2023-06-22T09:06:47;6.50;;;5.78;;
12118;SDS011;6123;48.864;9.200;2023-06-22T09:09:15;7.55;;;5.88;;
12118;SDS011;6123;48.864;9.200;2023-06-22T09:11:41;7.20;;;5.47;;
12118;SDS011;6123;48.864;9.200;2023-06-22T09:14:08;6.28;;;5.55;;
12118;SDS011;6123;48.864;9.200;2023-06-22T09:16:34;8.27;;;6.65;;
12118;SDS011;6123;48.864;9.200;2023-06-22T09:19:00;8.07;;;6.38;;
12118;SDS011;6123;48.864;9.200;2023-06-22T09:21:25;7.38;;;6.45;;
12118;SDS011;6123;48.864;9.200;2023-06-22T09:23:51;6.25;;;5.65;;
12118;SDS011;6123;48.864;9.200;2023-06-22T09:26:17;7.45;;;6.18;;
12118;SDS011;6123;48.864;9.200;2023-06-22T09:28:43;7.32;;;5.85;;
12118;SDS011;6123;48.864;9.200;2023-06-22T09:31:08;6.22;;;5.53;;
12118;SDS011;6123;48.864;9.200;2023-06-22T09:33:35;7.40;;;6.63;;
12118;SDS011;6123;48.864;9.200;2023-06-22T09:36:01;6.82;;;5.72;;
12118;SDS011;6123;48.864;9.200;2023-06-22T09:38:26;7.80;;;6.43;;
12118;SDS011;6123;48.864;9.200;2023-06-22T09:40:52;5.78;;;5.25;;
12118;SDS011;6123;48.864;9.200;2023-06-22T09:43:17;8.60;;;6.43;;
12118;SDS011;6123;48.864;9.200;2023-06-22T09:45:43;8.38;;;6.07;;
12118;SDS011;6123;48.864;9.200;2023-06-22T09:48:08;11.02;;;6.60;;
12118;SDS011;6123;48.864;9.200;2023-06-22T09:50:34;9.07;;;6.32;;
12118;SDS011;6123;48.864;9.200;2023-06-22T09:53:01;7.00;;;5.75;;
12118;SDS011;6123;48.864;9.200;2023-06-22T09:55:26;9.98;;;6.63;;
12118;SDS011;6123;48.864;9.200;2023-06-22T09:57:52;8.80;;;6.35;;
12118;SDS011;6123;48.864;9.200;2023-06-22T10:00:19;8.23;;;6.20;;
12118;SDS011;6123;48.864;9.200;2023-06-22T10:02:46;7.28;;;6.45;;
12118;SDS011;6123;48.864;9.200;2023-06-22T10:05:12;8.18;;;6.20;;
12118;SDS011;6123;48.864;9.200;2023-06-22T10:07:37;8.43;;;6.18;;
12118;SDS011;6123;48.864;9.200;2023-06-22T10:10:07;9.10;;;5.90;;
12118;SDS011;6123;48.864;9.200;2023-06-22T10:12:33;10.70;;;6.22;;
12118;SDS011;6123;48.864;9.200;2023-06-22T10:14:58;8.23;;;6.07;;
12118;SDS011;6123;48.864;9.200;2023-06-22T10:17:24;6.60;;;5.78;;
12118;SDS011;6123;48.864;9.200;2023-06-22T10:19:49;6.95;;;6.15;;
12118;SDS011;6123;48.864;9.200;2023-06-22T10:22:15;6.57;;;5.78;;
12118;SDS011;6123;48.864;9.200;2023-06-22T10:24:40;7.43;;;6.43;;
12118;SDS011;6123;48.864;9.200;2023-06-22T10:27:10;7.45;;;6.22;;
12118;SDS011;6123;48.864;9.200;2023-06-22T10:29:36;8.45;;;6.20;;
12118;SDS011;6123;48.864;9.200;2023-06-22T10:32:01;6.60;;;5.72;;
12118;SDS011;6123;48.864;9.200;2023-06-22T10:34:27;6.32;;;5.72;;
12118;SDS011;6123;48.864;9.200;2023-06-22T10:36:52;8.70;;;6.07;;
12118;SDS011;6123;48.864;9.200;2023-06-22T10:39:18;7.97;;;6.00;;
12118;SDS011;6123;48.864;9.200;2023-06-22T10:41:43;12.32;;;6.68;;
12118;SDS011;6123;48.864;9.200;2023-06-22T10:44:09;7.10;;;6.07;;
12118;SDS011;6123;48.864;9.200;2023-06-22T10:46:35;7.97;;;5.95;;
12118;SDS011;6123;48.864;9.200;2023-06-22T10:49:01;7.47;;;5.75;;
12118;SDS011;6123;48.864;9.200;2023-06-22T10:51:26;8.25;;;6.32;;
12118;SDS011;6123;48.864;9.200;2023-06-22T10:53:53;10.77;;;6.28;;
12118;SDS011;6123;48.864;9.200;2023-06-22T10:56:19;10.70;;;5.68;;
12118;SDS011;6123;48.864;9.200;2023-06-22T10:58:45;8.95;;;6.18;;
12118;SDS011;6123;48.864;9.200;2023-06-22T11:01:11;6.45;;;5.57;;
12118;SDS011;6123;48.864;9.200;2023-06-22T11:03:36;8.38;;;6.28;;
12118;SDS011;6123;48.864;9.200;2023-06-22T11:06:02;8.15;;;6.00;;
12118;SDS011;6123;48.864;9.200;2023-06-22T11:08:28;10.07;;;7.03;;
12118;SDS011;6123;48.864;9.200;2023-06-22T11:10:53;10.55;;;6.38;;
12118;SDS011;6123;48.864;9.200;2023-06-22T11:13:19;7.10;;;5.55;;
12118;SDS011;6123;48.864;9.200;2023-06-22T11:15:44;9.15;;;5.95;;
12118;SDS011;6123;48.864;9.200;2023-06-22T11:18:09;9.15;;;5.63;;
12118;SDS011;6123;48.864;9.200;2023-06-22T11:20:35;6.60;;;5.75;;
12118;SDS011;6123;48.864;9.200;2023-06-22T11:23:04;9.23;;;5.95;;
12118;SDS011;6123;48.864;9.200;2023-06-22T11:25:33;8.82;;;6.47;;
12118;SDS011;6123;48.864;9.200;2023-06-22T11:28:03;8.95;;;5.72;;
12118;SDS011;6123;48.864;9.200;2023-06-22T11:30:29;11.43;;;5.75;;
12118;SDS011;6123;48.864;9.200;2023-06-22T11:32:56;9.07;;;5.70;;
12118;SDS011;6123;48.864;9.200;2023-06-22T11:35:22;6.20;;;5.60;;
12118;SDS011;6123;48.864;9.200;2023-06-22T11:37:48;7.43;;;6.05;;
12118;SDS011;6123;48.864;9.200;2023-06-22T11:40:14;8.10;;;5.57;;
12118;SDS011;6123;48.864;9.200;2023-06-22T11:42:39;8.10;;;5.47;;
12118;SDS011;6123;48.864;9.200;2023-06-22T11:45:05;8.18;;;6.28;;
12118;SDS011;6123;48.864;9.200;2023-06-22T11:47:31;10.73;;;5.75;;
12118;SDS011;6123;48.864;9.200;2023-06-22T11:49:57;7.68;;;5.40;;
12118;SDS011;6123;48.864;9.200;2023-06-22T11:52:22;9.07;;;5.20;;
12118;SDS011;6123;48.864;9.200;2023-06-22T11:54:48;6.28;;;5.63;;
12118;SDS011;6123;48.864;9.200;2023-06-22T11:57:13;9.43;;;6.03;;
12118;SDS011;6123;48.864;9.200;2023-06-22T11:59:39;8.93;;;5.85;;
12118;SDS011;6123;48.864;9.200;2023-06-22T12:02:04;12.05;;;6.43;;
12118;SDS011;6123;48.864;9.200;2023-06-22T12:04:32;8.13;;;5.97;;
12118;SDS011;6123;48.864;9.200;2023-06-22T12:06:58;7.30;;;6.07;;
12118;SDS011;6123;48.864;9.200;2023-06-22T12:09:23;9.32;;;5.32;;
12118;SDS011;6123;48.864;9.200;2023-06-22T12:11:49;12.55;;;6.22;;
12118;SDS011;6123;48.864;9.200;2023-06-22T12:14:14;7.18;;;6.43;;
12118;SDS011;6123;48.864;9.200;2023-06-22T12:16:40;9.65;;;5.68;;
12118;SDS011;6123;48.864;9.200;2023-06-22T12:19:05;9.18;;;5.60;;
12118;SDS011;6123;48.864;9.200;2023-06-22T12:21:31;9.55;;;6.35;;
12118;SDS011;6123;48.864;9.200;2023-06-22T12:23:56;7.97;;;6.53;;
12118;SDS011;6123;48.864;9.200;2023-06-22T12:26:22;7.55;;;5.57;;
12118;SDS011;6123;48.864;9.200;2023-06-22T12:28:48;13.40;;;6.60;;
12118;SDS011;6123;48.864;9.200;2023-06-22T12:31:13;8.25;;;5.70;;
12118;SDS011;6123;48.864;9.200;2023-06-22T12:33:39;9.25;;;6.40;;
12118;SDS011;6123;48.864;9.200;2023-06-22T12:36:05;10.45;;;6.07;;
12118;SDS011;6123;48.864;9.200;2023-06-22T12:38:30;10.55;;;6.70;;
12118;SDS011;6123;48.864;9.200;2023-06-22T12:40:56;8.57;;;6.38;;
12118;SDS011;6123;48.864;9.200;2023-06-22T12:43:21;10.68;;;6.80;;
12118;SDS011;6123;48.864;9.200;2023-06-22T12:45:47;8.88;;;6.35;;
12118;SDS011;6123;48.864;9.200;2023-06-22T12:48:12;12.48;;;7.00;;
12118;SDS011;6123;48.864;9.200;2023-06-22T12:50:38;8.65;;;6.18;;
12118;SDS011;6123;48.864;9.200;2023-06-22T12:53:03;10.90;;;6.05;;
12118;SDS011;6123;48.864;9.200;2023-06-22T12:55:31;8.25;;;6.65;;
12118;SDS011;6123;48.864;9.200;2023-06-22T12:57:56;10.38;;;6.95;;
12118;SDS011;6123;48.864;9.200;2023-06-22T13:00:22;11.07;;;6.38;;
12118;SDS011;6123;48.864;9.200;2023-06-22T13:02:48;11.68;;;7.15;;
12118;SDS011;6123;48.864;9.200;2023-06-22T13:05:13;9.82;;;6.55;;
12118;SDS011;6123;48.864;9.200;2023-06-22T13:07:39;10.73;;;6.68;;
12118;SDS011;6123;48.864;9.200;2023-06-22T13:10:04;8.25;;;6.40;;
12118;SDS011;6123;48.864;9.200;2023-06-22T13:12:30;11.05;;;6.30;;
12118;SDS011;6123;48.864;9.200;2023-06-22T13:14:56;8.85;;;6.43;;
12118;SDS011;6123;48.864;9.200;2023-06-22T13:17:21;8.43;;;6.45;;
12118;SDS011;6123;48.864;9.200;2023-06-22T13:19:47;11.35;;;5.85;;
12118;SDS011;6123;48.864;9.200;2023-06-22T13:25:10;12.35;;;7.10;;
12118;SDS011;6123;48.864;9.200;2023-06-22T13:27:40;13.20;;;6.88;;
12118;SDS011;6123;48.864;9.200;2023-06-22T13:30:06;9.88;;;6.30;;
12118;SDS011;6123;48.864;9.200;2023-06-22T13:32:33;11.07;;;6.47;;
12118;SDS011;6123;48.864;9.200;2023-06-22T13:34:58;11.07;;;6.60;;
12118;SDS011;6123;48.864;9.200;2023-06-22T13:37:25;7.97;;;6.03;;
12118;SDS011;6123;48.864;9.200;2023-06-22T13:39:50;8.73;;;6.05;;
12118;SDS011;6123;48.864;9.200;2023-06-22T13:42:16;10.93;;;6.65;;
12118;SDS011;6123;48.864;9.200;2023-06-22T13:44:42;10.43;;;6.55;;
12118;SDS011;6123;48.864;9.200;2023-06-22T13:47:07;10.85;;;6.53;;
12118;SDS011;6123;48.864;9.200;2023-06-22T13:49:33;9.30;;;6.35;;
12118;SDS011;6123;48.864;9.200;2023-06-22T13:51:59;11.45;;;6.38;;
12118;SDS011;6123;48.864;9.200;2023-06-22T13:54:24;10.00;;;6.47;;
12118;SDS011;6123;48.864;9.200;2023-06-22T13:56:50;11.38;;;6.70;;
12118;SDS011;6123;48.864;9.200;2023-06-22T13:59:15;9.27;;;6.35;;
12118;SDS011;6123;48.864;9.200;2023-06-22T14:01:41;10.60;;;7.55;;
12118;SDS011;6123;48.864;9.200;2023-06-22T14:04:08;10.85;;;7.72;;
12118;SDS011;6123;48.864;9.200;2023-06-22T14:06:33;9.85;;;7.10;;
12118;SDS011;6123;48.864;9.200;2023-06-22T14:08:59;11.63;;;7.32;;
12118;SDS011;6123;48.864;9.200;2023-06-22T14:11:25;10.23;;;6.78;;
12118;SDS011;6123;48.864;9.200;2023-06-22T14:13:50;8.50;;;6.10;;
12118;SDS011;6123;48.864;9.200;2023-06-22T14:16:16;11.00;;;5.78;;
12118;SDS011;6123;48.864;9.200;2023-06-22T14:18:42;8.32;;;6.60;;
12118;SDS011;6123;48.864;9.200;2023-06-22T14:21:07;10.13;;;6.25;;
12118;SDS011;6123;48.864;9.200;2023-06-22T14:23:33;12.32;;;6.47;;
12118;SDS011;6123;48.864;9.200;2023-06-22T14:25:59;8.23;;;6.40;;
12118;SDS011;6123;48.864;9.200;2023-06-22T14:28:24;9.85;;;7.18;;
12118;SDS011;6123;48.864;9.200;2023-06-22T14:30:50;11.68;;;6.80;;
12118;SDS011;6123;48.864;9.200;2023-06-22T14:33:15;10.02;;;7.10;;
12118;SDS011;6123;48.864;9.200;2023-06-22T14:35:41;9.13;;;6.20;;
12118;SDS011;6123;48.864;9.200;2023-06-22T14:38:06;9.48;;;6.18;;
12118;SDS011;6123;48.864;9.200;2023-06-22T14:40:32;10.95;;;6.50;;
12118;SDS011;6123;48.864;9.200;2023-06-22T14:42:57;7.75;;;5.75;;
12118;SDS011;6123;48.864;9.200;2023-06-22T14:45:23;13.35;;;6.97;;
12118;SDS011;6123;48.864;9.200;2023-06-22T14:47:49;6.97;;;6.28;;
12118;SDS011;6123;48.864;9.200;2023-06-22T14:50:15;13.27;;;6.38;;
12118;SDS011;6123;48.864;9.200;2023-06-22T14:52:40;10.45;;;6.25;;
12118;SDS011;6123;48.864;9.200;2023-06-22T14:55:06;9.90;;;6.05;;
12118;SDS011;6123;48.864;9.200;2023-06-22T14:57:32;11.77;;;6.15;;
12118;SDS011;6123;48.864;9.200;2023-06-22T14:59:57;8.57;;;6.03;;